Knutsford, United Kingdom
Current Conditions -  °F | °C
As of 11:50 AM on Sunday 21 Dec 2014 (Local Time) from EGCC Reporting Station
Broken Clouds Broken Clouds  
Wind Chill:   Ceiling: 2300
Heat Index:   Visibility: 6mi
Dew Point:   Wind: 16mph
Humidity: 87%   Direction: 210°SSW
Pressure: 30.12"   Gusts: NA
Location:  53.3°N, 2.37°W
Report Text: EGCC 211150Z 21014KT 9999 FEW011 BKN023 09/07 Q1020 NOSIG
Loading
Personal Weather Stations






























Interactive Weather Map New forecast layout! Learn more

10-Day Weather Forecast

Advertisements
Track Severe Weather on mobile